Latest Weather Observations for Samuel Hill

IDQ60801

Issued at 9:35 am EST Friday 25 April 2014 (issued every 30 minutes, with the page automatically refreshed every 10 minutes)

About weather observations | Map of weather stations | Latest weather observations for QLD | Other Formats
Station Details ID: 033308 Name: SAMUEL HILL AERO Lat: -22.74 Lon: 150.66 Height: 31.0 m
Data from the previous 72 hours. | See also: Recent months at Samuel Hill
Date/Time
EST
Temp
°C
App
Temp
°C
Dew
Point
Rel
Hum
%
Delta-T
°C
Wind Press
QNH
hPa
Press
MSL
hPa
Rain
since 9 am
mm
Dir
 
Spd
km/h
Gust
km/h
Spd
kts
Gust
kts
25/09:30am 25.7 26.6 19.3 67 4.1 ESE 13 19 7 10 1016.4 - 0.0
25/09:00am 24.3 25.8 19.8 76 2.9 SE 11 19 6 10 1016.3 1016.1 0.2
25/08:30am 23.7 25.3 20.8 84 1.9 ESE 13 19 7 10 1016.4 - 0.2
25/08:00am 22.2 24.2 19.9 87 1.5 SSE 9 15 5 8 1016.4 - 0.2
25/07:30am 21.8 24.1 20.6 93 0.8 S 9 13 5 7 1016.0 - 0.2
25/07:00am 21.4 24.1 20.6 95 0.5 S 7 9 4 5 1015.7 - 0.2
25/06:35am 21.1 23.6 20.3 95 0.5 S 7 9 4 5 1015.2 - 0.2
25/06:30am 21.2 23.8 20.4 95 0.5 SSE 7 13 4 7 1015.1 - 0.2
25/06:01am 20.6 22.9 19.8 95 0.5 ENE 7 11 4 6 1014.8 - 0.2
25/06:00am 20.6 23.1 19.8 95 0.5 E 6 11 3 6 1014.7 1014.5 0.2
25/05:30am 20.3 23.8 19.5 95 0.5 CALM 0 0 0 0 1014.3 - 0.2
25/05:00am 20.4 23.9 19.6 95 0.5 CALM 0 0 0 0 1013.9 - 0.2
25/04:30am 20.3 23.8 19.6 96 0.4 CALM 0 6 0 3 1013.6 - 0.2
25/04:00am 20.2 23.6 19.4 95 0.5 CALM 0 0 0 0 1013.7 - 0.2
25/03:30am 20.1 23.5 19.3 95 0.5 CALM 0 0 0 0 1013.8 - 0.2
25/03:00am 20.1 23.5 19.3 95 0.5 CALM 0 0 0 0 1013.8 1013.6 0.2
25/02:30am 20.1 23.5 19.3 95 0.5 CALM 0 0 0 0 1013.8 - 0.2
25/02:00am 20.1 23.5 19.3 95 0.5 CALM 0 0 0 0 1014.2 - 0.2
25/01:30am 20.2 23.6 19.4 95 0.5 CALM 0 0 0 0 1014.3 - 0.2
25/01:00am 20.1 23.5 19.3 95 0.5 CALM 0 0 0 0 1014.7 - 0.2
25/12:30am 20.0 23.3 19.2 95 0.5 CALM 0 0 0 0 1014.7 - 0.2
25/12:00am 19.6 22.7 18.6 94 0.6 SSE 0 0 0 0 1014.7 1014.5 0.2
 
Date/Time
EST
Temp
°C
App
Temp
°C
Dew
Point
Rel
Hum
%
Delta-T
°C
Wind Press
QNH
hPa
Press
MSL
hPa
Rain
since 9 am
mm
Dir
 
Spd
km/h
Gust
km/h
Spd
kts
Gust
kts
24/11:30pm 19.5 22.5 18.5 94 0.6 CALM 0 0 0 0 1014.9 - 0.2
24/11:00pm 19.8 21.8 18.8 94 0.6 SSE 6 9 3 5 1015.0 - 0.2
24/10:30pm 19.8 23.0 18.8 94 0.6 CALM 0 0 0 0 1015.3 - 0.2
24/10:00pm 20.3 23.7 19.3 94 0.6 CALM 0 0 0 0 1015.4 - 0.2
24/09:30pm 20.8 23.7 19.8 94 0.6 SE 4 7 2 4 1015.5 - 0.2
24/09:00pm 20.7 23.9 19.7 94 0.6 NNE 2 7 1 4 1015.5 1015.3 0.2
24/08:30pm 20.8 24.4 19.8 94 0.6 CALM 0 0 0 0 1015.2 - 0.2
24/08:00pm 20.7 24.2 19.5 93 0.8 CALM 0 0 0 0 1014.8 - 0.2
24/07:30pm 20.7 24.2 19.5 93 0.8 CALM 0 6 0 3 1014.7 - 0.2
24/07:00pm 21.4 24.7 19.9 91 1.0 SW 2 7 1 4 1014.4 - 0.2
24/06:30pm 21.8 24.4 20.1 90 1.1 S 6 7 3 4 1014.1 - 0.2
24/06:00pm 22.2 24.6 20.1 88 1.4 SE 7 9 4 5 1013.9 1013.7 0.2
24/05:30pm 22.8 24.8 20.0 84 1.8 ESE 9 13 5 7 1013.6 - 0.2
24/05:00pm 23.5 25.0 19.8 80 2.4 SE 11 17 6 9 1013.4 - 0.2
24/04:30pm 24.6 25.6 20.3 77 2.8 ESE 15 20 8 11 1013.1 - 0.2
24/04:00pm 24.2 25.8 19.9 77 2.8 ESE 11 19 6 10 1013.0 - 0.2
24/03:30pm 24.2 24.5 19.7 76 2.9 ESE 17 24 9 13 1013.0 - 0.2
24/03:00pm 25.1 25.9 19.9 73 3.4 ESE 15 24 8 13 1012.8 1012.6 0.2
24/02:30pm 24.8 25.7 20.1 75 3.1 ESE 15 20 8 11 1012.8 - 0.2
24/02:00pm 24.4 26.2 20.3 78 2.7 ESE 11 19 6 10 1013.0 - 0.2
24/01:30pm 23.8 25.1 20.1 80 2.4 SE 13 17 7 9 1013.3 - 0.2
24/01:00pm 24.5 26.0 20.6 79 2.5 SE 13 17 7 9 1013.6 - 0.2
24/12:30pm 24.6 26.6 20.7 79 2.6 SE 11 17 6 9 1014.1 - 0.2
24/12:00pm 24.0 25.7 20.1 79 2.5 SSE 11 17 6 9 1014.4 1014.2 0.2
24/11:40am 24.2 26.1 21.3 84 1.9 S 13 17 7 9 1014.6 - 0.2
24/11:30am 23.7 25.8 21.0 85 1.8 S 11 13 6 7 1014.8 - 0.2
24/11:14am 23.4 25.5 20.9 86 1.6 S 11 17 6 9 1015.1 - 0.2
24/11:00am 23.1 24.8 20.2 84 1.9 SSE 11 17 6 9 1015.4 - 0.2
24/10:30am 22.4 24.7 20.7 90 1.1 S 9 13 5 7 1015.8 - 0.2
24/10:00am 21.9 24.2 20.7 93 0.8 S 9 15 5 8 1015.9 - 0.0
24/09:30am 21.4 23.2 20.4 94 0.6 S 11 17 6 9 1016.2 - 0.0
24/09:00am 21.1 22.9 20.3 95 0.5 E 11 17 6 9 1014.8 1014.6 8.0
24/08:46am 21.1 23.6 20.3 95 0.5 ESE 7 11 4 6 1015.5 - 8.0
24/08:30am 20.9 23.3 20.1 95 0.5 SSE 7 9 4 5 1015.9 - 8.0
24/08:00am 20.9 24.3 20.1 95 0.5 E 2 9 1 5 1016.1 - 6.8
24/07:54am 20.9 24.7 20.1 95 0.5 CALM 0 2 0 1 1015.9 - 6.6
24/07:30am 20.7 23.2 19.9 95 0.5 ENE 6 9 3 5 1015.3 - 6.4
24/07:00am 20.6 22.9 19.9 96 0.4 SSW 7 11 4 6 1015.4 - 6.2
24/06:30am 20.5 22.4 19.8 96 0.4 SSW 9 15 5 8 1015.2 - 6.2
24/06:00am 20.4 22.6 19.7 96 0.4 ENE 7 11 4 6 1013.9 1013.7 6.2
24/05:30am 20.5 24.1 19.7 95 0.5 CALM 0 0 0 0 1014.5 - 6.2
24/05:00am 20.5 22.9 19.7 95 0.5 SSE 6 9 3 5 1014.0 - 6.2
24/04:30am 20.5 23.7 19.7 95 0.5 SE 2 9 1 5 1014.1 - 6.2
24/04:00am 20.5 22.9 19.7 95 0.5 S 6 9 3 5 1014.3 - 6.2
24/03:30am 20.5 22.9 19.7 95 0.5 S 6 9 3 5 1014.3 - 6.2
24/03:00am 20.5 24.1 19.7 95 0.5 CALM 0 0 0 0 1014.3 1014.1 6.2
24/02:30am 20.6 23.1 19.8 95 0.5 SSE 6 7 3 4 1014.5 - 6.2
24/02:12am 20.6 23.1 19.8 95 0.5 SE 6 9 3 5 1014.3 - 6.2
24/02:00am 20.8 24.5 20.0 95 0.5 CALM 0 0 0 0 1014.9 - 6.2
24/01:46am 20.7 24.4 19.9 95 0.5 CALM 0 0 0 0 1015.1 - 6.2
24/01:32am 20.7 24.4 19.9 95 0.5 CALM 0 0 0 0 1015.0 - 6.2
24/01:30am 20.7 24.4 19.9 95 0.5 CALM 0 0 0 0 1015.1 - 6.2
24/01:24am 20.7 24.4 19.9 95 0.5 CALM 0 0 0 0 1015.1 - 6.2
24/01:11am 20.7 24.4 19.9 95 0.5 CALM 0 6 0 3 1015.2 - 6.2
24/01:07am 20.7 24.0 19.9 95 0.5 SSE 2 6 1 3 1015.3 - 6.2
24/01:00am 20.7 24.0 19.9 95 0.5 SSE 2 7 1 4 1015.2 - 6.2
24/12:30am 20.7 23.2 19.9 95 0.5 ESE 6 9 3 5 1015.5 - 6.2
24/12:00am 20.7 23.2 19.9 95 0.5 SSE 6 9 3 5 1016.2 1016.0 6.2
 
Date/Time
EST
Temp
°C
App
Temp
°C
Dew
Point
Rel
Hum
%
Delta-T
°C
Wind Press
QNH
hPa
Press
MSL
hPa
Rain
since 9 am
mm
Dir
 
Spd
km/h
Gust
km/h
Spd
kts
Gust
kts
23/11:30pm 20.8 23.4 20.0 95 0.5 S 6 7 3 4 1016.5 - 6.0
23/11:00pm 21.0 23.7 20.2 95 0.5 SSW 6 7 3 4 1016.8 - 6.0
23/10:36pm 21.0 24.0 20.0 94 0.6 SE 4 9 2 5 1017.1 - 6.0
23/10:30pm 20.9 24.2 19.9 94 0.6 E 2 9 1 5 1017.0 - 6.0
23/10:21pm 21.1 25.0 20.3 95 0.5 CALM 0 0 0 0 1017.1 - 6.0
23/10:17pm 21.2 25.1 20.4 95 0.5 CALM 0 0 0 0 1017.2 - 6.0
23/10:00pm 21.1 25.0 20.3 95 0.5 CALM 0 0 0 0 1017.1 - 6.0
23/09:54pm 21.1 25.0 20.3 95 0.5 CALM 0 0 0 0 1017.1 - 6.0
23/09:30pm 21.1 23.8 20.3 95 0.5 NNE 6 7 3 4 1017.2 - 5.8
23/09:29pm 21.1 23.8 20.3 95 0.5 NNE 6 7 3 4 1017.2 - 5.8
23/09:28pm 21.1 23.8 20.3 95 0.5 NNE 6 7 3 4 1017.2 - 5.8
23/09:01pm 21.2 25.1 20.4 95 0.5 CALM 0 0 0 0 1017.1 - 5.6
23/09:00pm 21.2 25.1 20.4 95 0.5 CALM 0 0 0 0 1017.1 1016.9 5.4
23/08:30pm 21.1 25.0 20.3 95 0.5 CALM 0 0 0 0 1016.6 - 5.4
23/08:00pm 21.0 24.1 20.2 95 0.5 SE 4 9 2 5 1016.5 - 5.4
23/07:30pm 21.0 23.7 20.2 95 0.5 SSE 6 9 3 5 1016.1 - 5.4
23/07:25pm 21.0 23.7 20.2 95 0.5 SSE 6 9 3 5 1016.1 - 5.4
23/07:02pm 20.9 23.3 20.1 95 0.5 SE 7 9 4 5 1015.9 - 5.0
23/07:00pm 20.9 23.3 20.1 95 0.5 SSE 7 9 4 5 1015.9 - 5.0
23/06:44pm 20.9 23.5 20.1 95 0.5 S 6 7 3 4 1015.9 - 5.0
23/06:30pm 20.9 23.3 20.1 95 0.5 SW 7 9 4 5 1015.7 - 5.0
23/06:00pm 21.0 23.6 20.0 94 0.6 SW 6 9 3 5 1015.0 1014.8 5.0
23/05:30pm 20.9 23.1 19.7 93 0.8 E 7 13 4 7 1014.9 - 4.6
23/05:06pm 21.2 23.7 20.2 94 0.6 ESE 7 11 4 6 1015.0 - 4.4
23/05:00pm 21.3 24.0 20.3 94 0.6 ESE 6 9 3 5 1015.2 - 4.2
23/04:30pm 21.6 25.5 20.4 93 0.8 CALM 0 0 0 0 1015.2 - 3.6
23/04:18pm 21.5 25.4 20.3 93 0.8 CALM 0 0 0 0 1015.2 - 3.2
23/04:00pm 21.5 24.2 20.3 93 0.8 SSE 6 9 3 5 1014.9 - 2.8
23/03:56pm 21.4 24.1 20.2 93 0.8 S 6 9 3 5 1014.9 - 2.8
23/03:30pm 21.6 25.0 20.2 92 0.9 E 2 7 1 4 1015.0 - 2.4
23/03:12pm 21.8 25.7 20.3 91 1.0 CALM 0 0 0 0 1015.0 - 2.0
23/03:00pm 21.7 24.7 20.0 90 1.1 SSE 4 7 2 4 1015.1 1014.9 1.6
23/02:30pm 22.1 24.8 20.6 91 1.0 S 7 11 4 6 1014.6 - 1.6
23/02:02pm 21.9 24.5 20.4 91 1.0 S 7 13 4 7 1014.6 - 1.6
23/02:00pm 21.9 24.5 20.4 91 1.0 S 7 13 4 7 1014.6 - 1.6
23/01:31pm 21.4 23.9 19.9 91 1.0 SSE 6 9 3 5 1015.0 - 0.6
23/01:30pm 21.4 23.9 19.9 91 1.0 SSE 6 9 3 5 1015.0 - 0.6
23/01:00pm 21.5 23.3 19.6 89 1.2 SE 9 15 5 8 1015.6 - 0.4
23/12:43pm 22.3 23.1 19.8 86 1.6 SE 15 24 8 13 1015.6 - 0.0
23/12:30pm 23.3 24.1 19.9 81 2.2 SE 15 22 8 12 1015.7 - 0.0
23/12:00pm 23.7 26.3 21.2 86 1.6 S 9 15 5 8 1015.9 1015.7 0.0
23/11:30am 22.9 25.7 20.4 86 1.6 SE 6 11 3 6 1016.5 - 0.0
23/11:00am 23.0 25.7 20.3 85 1.7 ESE 6 11 3 6 1016.6 - 0.0
23/10:30am 22.8 25.0 20.3 86 1.6 SE 9 15 5 8 1017.0 - 0.0
23/10:00am 22.6 25.2 20.5 88 1.4 E 7 9 4 5 1017.2 - 0.0
23/09:49am 22.4 24.1 20.1 87 1.5 E 11 19 6 10 1017.2 - 0.0
23/09:30am 22.3 25.0 20.6 90 1.1 SE 7 19 4 10 1017.4 - 0.0
23/09:27am 22.6 25.7 21.1 91 1.0 SSE 6 9 3 5 1017.6 - 0.0
23/09:00am 22.1 24.8 20.7 92 0.9 S 7 13 4 7 1017.3 1017.1 0.6
23/08:43am 22.0 25.2 20.6 92 0.9 SSE 4 9 2 5 1017.2 - 0.6
23/08:30am 21.8 24.3 20.3 91 1.0 SSE 7 9 4 5 1017.0 - 0.4
23/08:28am 21.8 24.4 20.4 92 0.9 SSE 7 9 4 5 1017.0 - 0.4
23/08:00am 21.8 24.2 20.1 90 1.1 S 7 9 4 5 1017.0 - 0.2
23/07:30am 21.6 23.9 19.9 90 1.1 S 7 13 4 7 1016.8 - 0.0
23/07:00am 21.6 24.4 19.7 89 1.2 E 4 9 2 5 1016.5 - 0.0
23/06:30am 21.3 23.3 19.2 88 1.3 SE 7 11 4 6 1016.2 - 0.0
23/06:00am 21.4 24.7 19.1 87 1.5 CALM 0 0 0 0 1016.5 1016.3 0.0
23/05:30am 21.6 23.1 19.0 85 1.6 SSW 9 13 5 7 1016.6 - 0.0
23/05:00am 21.5 23.0 18.9 85 1.6 S 9 15 5 8 1015.7 - 0.0
23/04:30am 21.0 22.8 18.8 87 1.4 SSE 7 9 4 5 1015.6 - 0.0
23/04:00am 20.9 23.7 18.8 88 1.3 ESE 2 7 1 4 1016.4 - 0.0
23/03:30am 20.9 22.9 18.7 87 1.4 E 6 7 3 4 1015.9 - 0.0
23/03:00am 21.2 23.1 18.9 87 1.4 S 7 9 4 5 1016.2 1016.0 0.0
23/02:30am 20.2 23.1 18.3 89 1.2 CALM 0 6 0 3 1015.8 - 0.0
23/02:00am 20.1 22.7 18.4 90 1.1 S 2 7 1 4 1016.2 - 0.0
23/01:30am 19.8 21.4 17.9 89 1.2 SE 6 9 3 5 1016.2 - 0.0
23/01:00am 19.7 21.7 17.8 89 1.2 ENE 4 7 2 4 1016.6 - 0.0
23/12:30am 20.1 22.9 18.0 88 1.3 CALM 0 0 0 0 1017.6 - 0.0
23/12:00am 20.2 22.7 18.1 88 1.3 WSW 2 6 1 3 1017.6 1017.4 0.0
 
Date/Time
EST
Temp
°C
App
Temp
°C
Dew
Point
Rel
Hum
%
Delta-T
°C
Wind Press
QNH
hPa
Press
MSL
hPa
Rain
since 9 am
mm
Dir
 
Spd
km/h
Gust
km/h
Spd
kts
Gust
kts
22/11:30pm 20.1 22.9 17.9 87 1.4 CALM 0 0 0 0 1017.9 - 0.0
22/11:00pm 19.8 22.7 18.1 90 1.1 CALM 0 0 0 0 1017.6 - 0.0
22/10:30pm 19.6 22.3 17.7 89 1.2 CALM 0 0 0 0 1017.8 - 0.0
22/10:00pm 19.8 22.4 17.6 87 1.4 CALM 0 0 0 0 1018.1 - 0.0
22/09:30pm 20.4 21.8 17.4 83 1.8 SSE 6 7 3 4 1018.3 - 0.0
22/09:00pm 21.3 22.6 17.1 77 2.6 S 6 9 3 5 1018.3 1018.2 0.0
22/08:30pm 20.7 23.3 17.5 82 2.0 CALM 0 2 0 1 1018.3 - 0.0
22/08:00pm 21.1 22.9 17.5 80 2.2 S 4 7 2 4 1018.1 - 0.0
22/07:30pm 20.9 21.5 16.7 77 2.6 S 9 11 5 6 1017.8 - 0.0
22/07:00pm 21.0 22.3 17.0 78 2.4 S 6 9 3 5 1017.7 - 0.0
22/06:30pm 20.9 22.8 16.7 77 2.6 SSE 2 7 1 4 1017.3 - 0.0
22/06:00pm 21.8 22.6 16.3 71 3.3 SSE 7 9 4 5 1017.1 1016.9 0.0
22/05:30pm 23.5 24.3 16.3 64 4.4 ESE 7 11 4 6 1017.1 - 0.0
22/05:00pm 24.7 24.1 15.6 57 5.5 ESE 13 20 7 11 1016.9 - 0.0
22/04:30pm 25.6 25.1 15.9 55 5.9 E 13 20 7 11 1016.9 - 0.0
22/04:00pm 25.9 24.6 15.9 54 6.1 ESE 17 24 9 13 1016.8 - 0.0
22/03:30pm 26.4 24.8 15.1 49 6.8 ESE 17 26 9 14 1016.6 - 0.0
22/03:00pm 26.5 25.1 15.5 50 6.7 E 17 28 9 15 1016.5 1016.3 0.0
22/02:30pm 26.6 25.2 15.6 50 6.7 ESE 17 28 9 15 1016.7 - 0.0
22/02:00pm 27.0 26.5 16.0 51 6.8 SE 13 20 7 11 1016.8 - 0.0
22/01:30pm 27.2 26.8 17.1 54 6.3 SE 15 20 8 11 1017.1 - 0.0
22/01:00pm 26.3 25.1 16.0 53 6.3 ESE 17 26 9 14 1017.4 - 0.0
22/12:30pm 26.5 25.7 16.1 52 6.4 E 15 24 8 13 1017.7 - 0.0
22/12:00pm 27.7 26.6 16.3 49 7.0 E 17 26 9 14 1018.0 1017.9 0.0
22/11:30am 27.2 26.3 16.8 53 6.5 E 17 26 9 14 1018.3 - 0.0
22/11:00am 26.6 25.6 16.5 54 6.2 E 17 32 9 17 1018.7 - 0.0
22/10:30am 27.0 27.1 17.5 56 6.0 E 13 20 7 11 1019.2 - 0.0
22/10:00am 25.2 28.0 19.6 71 3.6 E 4 9 2 5 1019.5 - 0.0

Other Formats:

Comma delimited format used in spreadsheet applications
http://www.bom.gov.au/fwo/IDQ60801/IDQ60801.94370.axf

JavaScript Object Notation format (JSON) in row-major order
http://www.bom.gov.au/fwo/IDQ60801/IDQ60801.94370.json